Time;durP1;ratioP1;P1;durP2;ratioP2;P2;SDS_P1;SDS_P2;PMS_P1;PMS_P2;Temp;Humidity;BMP_temperature;BMP_pressure;BME280_temperature;BME280_humidity;BME280_pressure;Samples;Min_cycle;Max_cycle;Signal;HPM_P1;HPM_P2
2022/11/20 00:00:30;;;;;;;41.33;23.77;;;;;;;;;;735896;190;918959;-59
2022/11/20 00:02:56;;;;;;;38.30;24.30;;;;;;;;;;733615;190;919071;-62
2022/11/20 00:05:22;;;;;;;36.58;23.90;;;;;;;;;;731426;192;815508;-62
2022/11/20 00:07:48;;;;;;;42.17;25.13;;;;;;;;;;742514;188;919237;-62
2022/11/20 00:10:13;;;;;;;38.13;25.30;;;;;;;;;;736417;188;819568;-59
2022/11/20 00:12:39;;;;;;;48.43;26.03;;;;;;;;;;735956;188;918947;-60
2022/11/20 00:15:06;;;;;;;41.97;25.80;;;;;;;;;;741391;190;915703;-59
2022/11/20 00:17:31;;;;;;;47.63;28.73;;;;;;;;;;731625;190;919478;-63
2022/11/20 00:19:57;;;;;;;42.47;25.40;;;;;;;;;;727285;191;919330;-61
2022/11/20 00:22:23;;;;;;;47.53;27.43;;;;;;;;;;733997;191;919739;-59
2022/11/20 00:24:49;;;;;;;48.80;25.77;;;;;;;;;;731863;190;905010;-59
2022/11/20 00:27:15;;;;;;;44.15;27.48;;;;;;;;;;733038;190;936678;-60
2022/11/20 00:29:41;;;;;;;41.67;27.20;;;;;;;;;;737821;190;871482;-62
2022/11/20 00:32:07;;;;;;;45.00;29.10;;;;;;;;;;732121;190;931089;-58
2022/11/20 00:34:32;;;;;;;48.87;27.20;;;;;;;;;;731405;188;920059;-59
2022/11/20 00:36:58;;;;;;;45.40;28.03;;;;;;;;;;728005;190;919463;-60
2022/11/20 00:39:24;;;;;;;48.47;30.12;;;;;;;;;;740745;190;918534;-58
2022/11/20 00:41:50;;;;;;;49.23;28.87;;;;;;;;;;734925;190;919354;-62
2022/11/20 00:44:16;;;;;;;40.40;26.47;;;;;;;;;;735344;188;918414;-62
2022/11/20 00:46:42;;;;;;;44.60;27.10;;;;;;;;;;743560;189;921624;-60
2022/11/20 00:49:07;;;;;;;47.07;26.33;;;;;;;;;;738903;190;918056;-61
2022/11/20 00:51:33;;;;;;;44.25;28.75;;;;;;;;;;737989;190;918743;-59
2022/11/20 00:53:59;;;;;;;37.47;24.17;;;;;;;;;;739285;190;920042;-60
2022/11/20 00:56:25;;;;;;;41.65;27.13;;;;;;;;;;736231;190;816738;-59
2022/11/20 00:58:51;;;;;;;42.57;25.47;;;;;;;;;;733289;189;918554;-63
2022/11/20 01:01:18;;;;;;;41.60;25.90;;;;;;;;;;736476;190;920569;-61
2022/11/20 01:03:43;;;;;;;48.13;26.37;;;;;;;;;;740287;190;919302;-62
2022/11/20 01:06:09;;;;;;;42.63;26.00;;;;;;;;;;734155;190;919229;-62
2022/11/20 01:08:35;;;;;;;44.03;24.50;;;;;;;;;;733846;190;817469;-62
2022/11/20 01:11:01;;;;;;;41.23;23.83;;;;;;;;;;737513;191;919716;-62
2022/11/20 01:16:02;;;;;;;44.97;26.20;;;;;;;;;;732574;190;920518;-58
2022/11/20 01:18:27;;;;;;;47.50;26.60;;;;;;;;;;731409;190;912468;-60
2022/11/20 01:20:53;;;;;;;38.78;24.77;;;;;;;;;;733680;190;916959;-59
2022/11/20 01:23:19;;;;;;;38.73;22.60;;;;;;;;;;729721;190;919280;-59
2022/11/20 01:25:45;;;;;;;36.35;23.48;;;;;;;;;;731926;190;923379;-59
2022/11/20 01:28:11;;;;;;;42.60;22.80;;;;;;;;;;739503;190;916073;-59
2022/11/20 01:30:37;;;;;;;36.37;23.60;;;;;;;;;;735018;190;899155;-60
2022/11/20 01:33:02;;;;;;;42.17;23.70;;;;;;;;;;733579;190;918892;-59
2022/11/20 01:35:28;;;;;;;36.50;24.00;;;;;;;;;;738693;190;922079;-62
2022/11/20 01:37:54;;;;;;;38.20;24.30;;;;;;;;;;732922;190;918723;-62
2022/11/20 01:40:20;;;;;;;42.83;25.00;;;;;;;;;;728283;191;919037;-59
2022/11/20 01:45:24;;;;;;;39.97;23.30;;;;;;;;;;732920;190;915101;-62
2022/11/20 01:47:51;;;;;;;38.97;24.52;;;;;;;;;;730231;189;894489;-62
2022/11/20 01:50:17;;;;;;;47.83;26.47;;;;;;;;;;734745;190;919389;-62
2022/11/20 01:52:43;;;;;;;42.80;24.70;;;;;;;;;;731637;190;919108;-62
2022/11/20 01:55:09;;;;;;;49.63;30.07;;;;;;;;;;737050;189;917147;-62
2022/11/20 01:57:35;;;;;;;49.03;29.27;;;;;;;;;;732912;189;919096;-62
2022/11/20 02:00:02;;;;;;;43.63;28.00;;;;;;;;;;731748;190;918865;-62
2022/11/20 02:02:28;;;;;;;46.40;28.50;;;;;;;;;;739122;189;923099;-62
2022/11/20 02:04:54;;;;;;;45.80;28.60;;;;;;;;;;730840;191;920220;-62
2022/11/20 02:07:20;;;;;;;43.30;26.03;;;;;;;;;;728800;191;1021379;-61
2022/11/20 02:09:46;;;;;;;49.33;29.58;;;;;;;;;;735399;190;918083;-60
2022/11/20 02:13:42;;;;;;;48.23;28.17;;;;;;;;;;737989;190;921976;-59
2022/11/20 02:14:38;;;;;;;52.40;30.13;;;;;;;;;;732585;190;924158;-61
2022/11/20 02:17:04;;;;;;;49.03;28.87;;;;;;;;;;735115;190;921286;-61
2022/11/20 02:19:30;;;;;;;41.03;25.30;;;;;;;;;;742490;190;921430;-61
2022/11/20 02:22:02;;;;;;;45.53;26.43;;;;;;;;;;738704;190;920810;-59
2022/11/20 02:24:28;;;;;;;43.93;26.50;;;;;;;;;;737825;190;918263;-61
2022/11/20 02:26:54;;;;;;;49.30;28.20;;;;;;;;;;735714;190;817985;-62
2022/11/20 02:29:26;;;;;;;49.40;30.47;;;;;;;;;;742378;186;918736;-58
2022/11/20 02:31:52;;;;;;;46.47;27.70;;;;;;;;;;732529;189;918941;-58
2022/11/20 02:34:18;;;;;;;44.43;28.57;;;;;;;;;;731614;190;920897;-61
2022/11/20 02:36:43;;;;;;;43.73;27.30;;;;;;;;;;737687;191;815921;-59
2022/11/20 02:39:09;;;;;;;49.57;29.30;;;;;;;;;;734639;190;816954;-58
2022/11/20 02:41:35;;;;;;;45.80;26.70;;;;;;;;;;737996;190;815092;-59
2022/11/20 02:44:01;;;;;;;51.08;31.45;;;;;;;;;;734422;190;917190;-61
2022/11/20 02:46:27;;;;;;;44.93;29.00;;;;;;;;;;742069;186;918767;-59
2022/11/20 02:48:53;;;;;;;44.43;28.10;;;;;;;;;;734124;190;919304;-61
2022/11/20 02:51:18;;;;;;;48.20;29.85;;;;;;;;;;732912;190;923677;-59
2022/11/20 02:53:44;;;;;;;45.43;27.10;;;;;;;;;;739622;190;919271;-59
2022/11/20 02:56:10;;;;;;;47.20;27.73;;;;;;;;;;734530;190;918804;-62
2022/11/20 02:58:36;;;;;;;49.33;28.73;;;;;;;;;;735727;190;918234;-59
2022/11/20 03:01:02;;;;;;;43.90;26.47;;;;;;;;;;737952;190;919117;-61
2022/11/20 03:03:28;;;;;;;46.07;26.90;;;;;;;;;;732350;190;920580;-62
2022/11/20 03:05:54;;;;;;;44.67;25.50;;;;;;;;;;731326;191;920186;-62
2022/11/20 03:08:19;;;;;;;50.97;29.10;;;;;;;;;;738796;190;817837;-60
2022/11/20 03:10:45;;;;;;;42.33;24.07;;;;;;;;;;736580;189;919339;-58
2022/11/20 03:13:11;;;;;;;45.33;24.55;;;;;;;;;;734332;190;918496;-61
2022/11/20 03:15:37;;;;;;;47.43;24.30;;;;;;;;;;734039;190;816539;-61
2022/11/20 03:18:03;;;;;;;43.20;25.30;;;;;;;;;;739930;191;816406;-58
2022/11/20 03:20:29;;;;;;;40.53;23.13;;;;;;;;;;738610;190;907739;-60
2022/11/20 03:22:55;;;;;;;41.90;24.73;;;;;;;;;;735590;190;908673;-59
2022/11/20 03:25:20;;;;;;;37.90;23.70;;;;;;;;;;735538;191;811349;-58
2022/11/20 03:27:46;;;;;;;42.20;25.83;;;;;;;;;;722653;190;918329;-60
2022/11/20 03:30:12;;;;;;;40.10;23.92;;;;;;;;;;731293;191;916179;-57
2022/11/20 03:32:38;;;;;;;42.27;25.23;;;;;;;;;;736349;191;928085;-61
2022/11/20 03:35:05;;;;;;;38.10;22.90;;;;;;;;;;733442;190;915669;-61
2022/11/20 03:37:30;;;;;;;37.67;22.33;;;;;;;;;;730747;190;916188;-61
2022/11/20 03:39:56;;;;;;;39.57;23.07;;;;;;;;;;732134;188;916482;-59
2022/11/20 03:44:55;;;;;;;43.13;23.57;;;;;;;;;;733518;190;916023;-59
2022/11/20 03:47:21;;;;;;;38.70;25.40;;;;;;;;;;733865;190;920225;-60
2022/11/20 03:49:46;;;;;;;45.27;23.70;;;;;;;;;;735000;191;921979;-59
2022/11/20 03:52:12;;;;;;;42.40;22.83;;;;;;;;;;729004;191;915655;-62
2022/11/20 03:54:38;;;;;;;40.83;24.80;;;;;;;;;;733271;190;910938;-59
2022/11/20 03:57:04;;;;;;;35.40;22.17;;;;;;;;;;736676;190;913660;-62
2022/11/20 03:59:30;;;;;;;40.57;25.33;;;;;;;;;;741070;190;812360;-59
2022/11/20 04:01:56;;;;;;;51.40;26.03;;;;;;;;;;733833;190;921898;-62
2022/11/20 04:04:21;;;;;;;51.00;23.50;;;;;;;;;;731428;190;916302;-62
2022/11/20 04:06:48;;;;;;;42.50;22.97;;;;;;;;;;739048;190;905283;-60
2022/11/20 04:09:15;;;;;;;38.60;20.80;;;;;;;;;;730578;191;903958;-61
2022/11/20 04:11:40;;;;;;;38.50;22.37;;;;;;;;;;733698;189;919258;-59
2022/11/20 04:14:06;;;;;;;43.80;24.23;;;;;;;;;;736422;190;919829;-59
2022/11/20 04:16:32;;;;;;;39.13;25.07;;;;;;;;;;730318;191;919739;-61
2022/11/20 04:18:58;;;;;;;40.10;22.77;;;;;;;;;;733271;190;919238;-62
2022/11/20 04:21:24;;;;;;;44.10;24.60;;;;;;;;;;733966;190;919206;-61
2022/11/20 04:23:50;;;;;;;42.00;23.20;;;;;;;;;;729483;189;919361;-61
2022/11/20 04:26:15;;;;;;;32.10;21.07;;;;;;;;;;732829;189;921721;-61
2022/11/20 04:28:41;;;;;;;43.83;25.12;;;;;;;;;;733273;190;921256;-61
2022/11/20 04:31:07;;;;;;;47.10;25.20;;;;;;;;;;740977;190;815489;-60
2022/11/20 04:33:33;;;;;;;38.50;22.77;;;;;;;;;;734614;190;916081;-61
2022/11/20 04:36:00;;;;;;;38.73;22.90;;;;;;;;;;735270;191;915347;-61
2022/11/20 04:38:25;;;;;;;48.30;27.13;;;;;;;;;;734714;190;819955;-61
2022/11/20 04:40:51;;;;;;;45.80;24.63;;;;;;;;;;737366;190;814135;-61
2022/11/20 04:43:17;;;;;;;39.53;22.57;;;;;;;;;;735682;190;901980;-59
2022/11/20 04:45:44;;;;;;;41.60;25.62;;;;;;;;;;736685;190;912319;-61
2022/11/20 04:48:10;;;;;;;38.63;23.67;;;;;;;;;;746163;186;922743;-61
2022/11/20 04:50:36;;;;;;;42.17;24.73;;;;;;;;;;733503;190;919010;-59
2022/11/20 04:53:01;;;;;;;40.07;24.37;;;;;;;;;;731690;191;919097;-61
2022/11/20 04:55:27;;;;;;;38.13;23.57;;;;;;;;;;741286;190;840482;-60
2022/11/20 04:57:53;;;;;;;39.60;24.10;;;;;;;;;;736017;190;918874;-58
2022/11/20 05:00:19;;;;;;;43.07;22.90;;;;;;;;;;737608;190;917910;-61
2022/11/20 05:02:45;;;;;;;39.63;23.83;;;;;;;;;;737736;190;916162;-58
2022/11/20 05:05:11;;;;;;;48.70;26.07;;;;;;;;;;731087;190;918643;-60
2022/11/20 05:07:37;;;;;;;48.33;25.97;;;;;;;;;;729374;192;919702;-59
2022/11/20 05:10:03;;;;;;;39.70;23.63;;;;;;;;;;736330;190;919017;-62
2022/11/20 05:12:28;;;;;;;39.90;23.37;;;;;;;;;;732308;190;919002;-58
2022/11/20 05:14:54;;;;;;;40.72;24.65;;;;;;;;;;730578;190;936117;-61
2022/11/20 05:17:20;;;;;;;41.77;24.73;;;;;;;;;;730961;190;926680;-61
2022/11/20 05:19:46;;;;;;;39.23;24.63;;;;;;;;;;736951;190;924432;-62
2022/11/20 05:22:12;;;;;;;40.83;23.00;;;;;;;;;;734548;190;919392;-59
2022/11/20 05:24:38;;;;;;;46.20;26.83;;;;;;;;;;732537;190;918263;-61
2022/11/20 05:27:03;;;;;;;45.50;24.07;;;;;;;;;;738272;190;918011;-59
2022/11/20 05:29:29;;;;;;;40.73;23.73;;;;;;;;;;731489;190;918866;-58
2022/11/20 05:31:55;;;;;;;45.17;26.77;;;;;;;;;;728925;191;924192;-59
2022/11/20 05:34:21;;;;;;;37.40;23.93;;;;;;;;;;737323;190;918576;-59
2022/11/20 05:36:47;;;;;;;42.38;23.50;;;;;;;;;;736521;190;918974;-61
2022/11/20 05:39:13;;;;;;;42.17;23.70;;;;;;;;;;733853;190;937863;-61
2022/11/20 05:41:38;;;;;;;43.50;24.00;;;;;;;;;;733053;188;820270;-61
2022/11/20 05:44:04;;;;;;;45.63;25.37;;;;;;;;;;733257;189;816173;-59
2022/11/20 05:46:30;;;;;;;44.23;24.80;;;;;;;;;;736272;190;816104;-61
2022/11/20 05:48:56;;;;;;;38.17;22.43;;;;;;;;;;732715;190;941979;-59
2022/11/20 05:51:22;;;;;;;45.03;25.43;;;;;;;;;;736169;190;912867;-61
2022/11/20 05:53:48;;;;;;;39.13;23.93;;;;;;;;;;729784;190;915524;-61
2022/11/20 05:56:14;;;;;;;40.10;23.57;;;;;;;;;;724654;190;918483;-59
2022/11/20 05:58:39;;;;;;;45.67;23.87;;;;;;;;;;736548;190;918404;-58
2022/11/20 06:01:06;;;;;;;46.13;26.13;;;;;;;;;;732618;190;931818;-61
2022/11/20 06:03:32;;;;;;;38.90;24.50;;;;;;;;;;733510;190;915339;-62
2022/11/20 06:05:59;;;;;;;48.05;24.87;;;;;;;;;;734508;189;919526;-59
2022/11/20 06:08:25;;;;;;;40.83;23.73;;;;;;;;;;743330;187;904741;-59
2022/11/20 06:10:51;;;;;;;39.77;23.57;;;;;;;;;;733622;188;915218;-59
2022/11/20 06:13:16;;;;;;;45.40;25.63;;;;;;;;;;733306;190;849277;-59
2022/11/20 06:15:42;;;;;;;39.40;23.60;;;;;;;;;;735724;190;831067;-60
2022/11/20 06:18:08;;;;;;;42.40;26.37;;;;;;;;;;731890;190;919020;-60
2022/11/20 06:20:34;;;;;;;44.10;25.90;;;;;;;;;;732568;190;812760;-58
2022/11/20 06:23:00;;;;;;;48.47;26.10;;;;;;;;;;735608;189;811927;-61
2022/11/20 06:25:26;;;;;;;44.53;24.90;;;;;;;;;;731751;190;919541;-61
2022/11/20 06:27:52;;;;;;;46.77;26.67;;;;;;;;;;733391;190;816332;-61
2022/11/20 06:30:17;;;;;;;45.90;27.17;;;;;;;;;;736012;190;880277;-61
2022/11/20 06:32:43;;;;;;;43.03;26.83;;;;;;;;;;730432;190;918983;-59
2022/11/20 06:35:09;;;;;;;46.57;28.20;;;;;;;;;;731070;190;913542;-59
2022/11/20 06:37:35;;;;;;;45.77;28.60;;;;;;;;;;733405;190;918844;-59
2022/11/20 06:40:01;;;;;;;42.30;28.13;;;;;;;;;;737588;190;912844;-59
2022/11/20 06:42:27;;;;;;;47.93;29.03;;;;;;;;;;738985;187;919089;-61
2022/11/20 06:44:53;;;;;;;47.43;28.10;;;;;;;;;;740459;188;915843;-60
2022/11/20 06:47:19;;;;;;;44.93;26.60;;;;;;;;;;738996;191;918908;-59
2022/11/20 06:49:44;;;;;;;43.20;24.60;;;;;;;;;;732376;191;919238;-61
2022/11/20 06:52:10;;;;;;;45.10;26.05;;;;;;;;;;736161;190;920279;-59
2022/11/20 06:54:36;;;;;;;42.43;26.37;;;;;;;;;;739746;190;915302;-59
2022/11/20 06:57:02;;;;;;;47.90;28.77;;;;;;;;;;732615;191;916717;-60
2022/11/20 06:59:28;;;;;;;40.13;24.73;;;;;;;;;;730406;189;904220;-59
2022/11/20 07:01:54;;;;;;;43.50;25.90;;;;;;;;;;734506;190;919099;-62
2022/11/20 07:04:20;;;;;;;42.93;26.13;;;;;;;;;;730669;190;917048;-59
2022/11/20 07:06:45;;;;;;;45.30;26.03;;;;;;;;;;734284;190;920128;-59
2022/11/20 07:09:11;;;;;;;40.17;24.20;;;;;;;;;;731168;190;919495;-59
2022/11/20 07:11:37;;;;;;;43.55;25.52;;;;;;;;;;739640;190;935567;-62
2022/11/20 07:14:03;;;;;;;37.60;24.50;;;;;;;;;;731995;190;919594;-59
2022/11/20 07:16:29;;;;;;;47.13;26.23;;;;;;;;;;731222;190;918502;-61
2022/11/20 07:18:55;;;;;;;50.27;28.50;;;;;;;;;;737448;190;919301;-61
2022/11/20 07:21:20;;;;;;;41.17;25.17;;;;;;;;;;730902;190;919447;-58
2022/11/20 07:23:46;;;;;;;42.83;24.77;;;;;;;;;;731127;190;919799;-60
2022/11/20 07:26:13;;;;;;;46.20;26.23;;;;;;;;;;734327;190;917475;-60
2022/11/20 07:28:39;;;;;;;42.10;27.53;;;;;;;;;;720416;193;817928;-59
2022/11/20 07:31:06;;;;;;;50.57;30.70;;;;;;;;;;731180;190;1023770;-62
2022/11/20 07:33:30;;;;;;;41.28;24.58;;;;;;;;;;732226;190;818344;-59
2022/11/20 07:35:56;;;;;;;45.97;27.20;;;;;;;;;;736602;190;812126;-59
2022/11/20 07:38:22;;;;;;;41.33;26.60;;;;;;;;;;735228;190;818736;-58
2022/11/20 07:40:48;;;;;;;44.50;27.23;;;;;;;;;;734636;190;652101;-61
2022/11/20 07:43:14;;;;;;;41.67;25.80;;;;;;;;;;741001;190;918672;-58
2022/11/20 07:45:40;;;;;;;45.80;26.60;;;;;;;;;;734367;190;910638;-59
2022/11/20 07:48:05;;;;;;;51.23;27.50;;;;;;;;;;733471;190;914707;-60
2022/11/20 07:50:31;;;;;;;49.87;27.20;;;;;;;;;;736942;190;911237;-60
2022/11/20 07:53:00;;;;;;;40.87;23.83;;;;;;;;;;734916;190;717454;-59
2022/11/20 07:55:26;;;;;;;45.60;28.20;;;;;;;;;;737673;190;629088;-58
2022/11/20 07:57:55;;;;;;;48.93;27.00;;;;;;;;;;734662;190;817221;-62
2022/11/20 08:00:21;;;;;;;46.73;27.27;;;;;;;;;;735317;190;916420;-59
2022/11/20 08:02:46;;;;;;;54.33;27.70;;;;;;;;;;737695;190;688256;-58
2022/11/20 08:05:12;;;;;;;45.67;27.87;;;;;;;;;;735969;190;636510;-61
2022/11/20 08:07:39;;;;;;;43.57;28.30;;;;;;;;;;736330;191;626339;-59
2022/11/20 08:10:05;;;;;;;46.63;26.40;;;;;;;;;;741186;190;623734;-61
2022/11/20 08:15:03;;;;;;;46.10;27.40;;;;;;;;;;734309;190;816405;-59
2022/11/20 08:17:29;;;;;;;46.10;27.40;;;;;;;;;;736427;190;897281;-59
2022/11/20 08:19:55;;;;;;;47.27;26.00;;;;;;;;;;724811;190;917640;-58
2022/11/20 08:22:21;;;;;;;40.40;23.27;;;;;;;;;;737823;190;816704;-59
2022/11/20 08:24:48;;;;;;;54.80;26.47;;;;;;;;;;738134;190;616935;-62
2022/11/20 08:27:13;;;;;;;47.13;24.20;;;;;;;;;;739715;186;634946;-61
2022/11/20 08:29:39;;;;;;;48.30;26.60;;;;;;;;;;735195;190;625764;-61
2022/11/20 08:32:04;;;;;;;37.53;24.10;;;;;;;;;;729134;190;918311;-61
2022/11/20 08:34:30;;;;;;;38.00;22.67;;;;;;;;;;741449;190;918568;-59
2022/11/20 08:36:56;;;;;;;40.67;25.33;;;;;;;;;;732646;190;919549;-60
2022/11/20 08:39:22;;;;;;;48.10;25.83;;;;;;;;;;729479;192;917910;-59
2022/11/20 08:41:48;;;;;;;41.67;22.70;;;;;;;;;;738135;190;919199;-61
2022/11/20 08:44:14;;;;;;;42.53;25.27;;;;;;;;;;736326;190;815090;-63
2022/11/20 08:46:40;;;;;;;35.57;21.57;;;;;;;;;;736184;190;811832;-59
2022/11/20 08:49:05;;;;;;;40.07;23.13;;;;;;;;;;737766;190;919000;-60
2022/11/20 08:51:31;;;;;;;43.10;22.43;;;;;;;;;;735677;190;817259;-59
2022/11/20 08:53:57;;;;;;;37.57;21.57;;;;;;;;;;734284;189;847629;-61
2022/11/20 08:56:23;;;;;;;39.67;23.70;;;;;;;;;;731047;190;915953;-60
2022/11/20 08:58:49;;;;;;;39.17;21.80;;;;;;;;;;736596;190;912538;-60
2022/11/20 09:01:14;;;;;;;41.20;22.00;;;;;;;;;;735107;188;898045;-62
2022/11/20 09:03:41;;;;;;;37.43;22.87;;;;;;;;;;734948;190;816661;-60
2022/11/20 09:06:06;;;;;;;35.60;20.60;;;;;;;;;;738527;190;920922;-61
2022/11/20 09:08:32;;;;;;;36.40;20.63;;;;;;;;;;733024;190;919037;-63
2022/11/20 09:10:58;;;;;;;39.80;21.83;;;;;;;;;;735437;190;919783;-62
2022/11/20 09:13:24;;;;;;;40.20;20.67;;;;;;;;;;740866;190;818322;-60
2022/11/20 09:15:53;;;;;;;39.33;21.77;;;;;;;;;;737656;190;816734;-63
2022/11/20 09:18:19;;;;;;;34.47;20.60;;;;;;;;;;733612;190;922375;-59
2022/11/20 09:20:44;;;;;;;39.53;21.10;;;;;;;;;;731984;190;921826;-60
2022/11/20 09:23:10;;;;;;;33.87;21.47;;;;;;;;;;737559;190;918184;-62
2022/11/20 09:25:36;;;;;;;37.60;21.87;;;;;;;;;;733885;189;916168;-63
2022/11/20 09:28:02;;;;;;;39.78;20.73;;;;;;;;;;728744;190;918601;-60
2022/11/20 09:30:28;;;;;;;40.50;21.90;;;;;;;;;;734082;190;816942;-61
2022/11/20 09:32:54;;;;;;;42.47;22.30;;;;;;;;;;734656;190;918960;-62
2022/11/20 09:35:20;;;;;;;36.67;20.10;;;;;;;;;;734453;190;919003;-62
2022/11/20 09:37:45;;;;;;;34.17;21.70;;;;;;;;;;740225;190;919061;-62
2022/11/20 09:40:26;;;;;;;43.27;21.07;;;;;;;;;;734930;190;923059;-60
2022/11/20 09:43:07;;;;;;;41.07;21.63;;;;;;;;;;734406;190;919320;-62
2022/11/20 09:45:49;;;;;;;34.90;21.10;;;;;;;;;;731212;191;919017;-61
2022/11/20 09:48:17;;;;;;;41.20;22.40;;;;;;;;;;732587;190;918290;-60
2022/11/20 09:50:43;;;;;;;47.03;23.80;;;;;;;;;;731582;190;923130;-60
2022/11/20 09:53:11;;;;;;;38.28;22.80;;;;;;;;;;731997;190;921253;-63
2022/11/20 09:55:37;;;;;;;36.43;21.23;;;;;;;;;;744933;186;936963;-63
2022/11/20 09:58:03;;;;;;;39.10;22.37;;;;;;;;;;734149;188;820657;-62
2022/11/20 10:00:29;;;;;;;38.00;21.80;;;;;;;;;;732403;188;920822;-62
2022/11/20 10:02:58;;;;;;;40.60;24.27;;;;;;;;;;738245;190;915402;-60
2022/11/20 10:05:37;;;;;;;40.07;22.70;;;;;;;;;;736697;190;843201;-62
2022/11/20 10:08:02;;;;;;;42.10;22.57;;;;;;;;;;732924;190;921552;-60
2022/11/20 10:10:29;;;;;;;41.37;23.90;;;;;;;;;;731590;190;816998;-60
2022/11/20 10:12:58;;;;;;;38.23;21.33;;;;;;;;;;737043;190;939766;-62
2022/11/20 10:15:36;;;;;;;50.60;26.70;;;;;;;;;;726346;190;915122;-62
2022/11/20 10:18:17;;;;;;;35.22;19.95;;;;;;;;;;734708;189;922899;-63
2022/11/20 10:20:54;;;;;;;43.70;23.53;;;;;;;;;;729507;188;816202;-63
2022/11/20 10:23:34;;;;;;;38.57;21.67;;;;;;;;;;737817;190;930763;-60
2022/11/20 10:26:01;;;;;;;45.90;24.85;;;;;;;;;;734377;190;919579;-60
2022/11/20 10:28:38;;;;;;;49.47;23.77;;;;;;;;;;732456;189;921938;-63
2022/11/20 10:31:03;;;;;;;38.40;22.50;;;;;;;;;;732613;190;918880;-62
2022/11/20 10:33:30;;;;;;;44.23;23.57;;;;;;;;;;737525;189;815952;-63
2022/11/20 10:35:58;;;;;;;44.47;24.30;;;;;;;;;;735651;190;921280;-61
2022/11/20 10:38:25;;;;;;;43.47;23.93;;;;;;;;;;733502;188;817046;-62
2022/11/20 10:41:24;;;;;;;45.00;25.50;;;;;;;;;;736249;190;920955;-63
2022/11/20 10:43:26;;;;;;;51.70;26.10;;;;;;;;;;739323;190;816321;-63
2022/11/20 10:45:53;;;;;;;47.47;25.77;;;;;;;;;;734092;190;816301;-61
2022/11/20 10:48:19;;;;;;;44.80;24.43;;;;;;;;;;731781;190;915619;-60
2022/11/20 10:50:48;;;;;;;44.10;24.40;;;;;;;;;;736828;190;816109;-60
2022/11/20 10:53:21;;;;;;;46.57;27.00;;;;;;;;;;733312;189;814702;-62
2022/11/20 10:55:49;;;;;;;41.13;24.57;;;;;;;;;;733134;190;1021809;-62
2022/11/20 10:58:20;;;;;;;39.40;24.37;;;;;;;;;;730193;190;914921;-61
2022/11/20 11:00:46;;;;;;;52.33;24.70;;;;;;;;;;730940;190;920305;-63
2022/11/20 11:03:15;;;;;;;38.27;23.23;;;;;;;;;;734382;187;919710;-60
2022/11/20 11:05:41;;;;;;;41.90;24.60;;;;;;;;;;731029;190;817217;-61
2022/11/20 11:08:09;;;;;;;43.20;26.60;;;;;;;;;;732267;190;919075;-64
2022/11/20 11:10:36;;;;;;;49.43;26.10;;;;;;;;;;736546;190;919453;-63
2022/11/20 11:13:02;;;;;;;44.23;26.03;;;;;;;;;;732429;190;918948;-62
2022/11/20 11:15:30;;;;;;;42.17;22.57;;;;;;;;;;733023;190;918553;-60
2022/11/20 11:17:56;;;;;;;44.37;24.47;;;;;;;;;;730278;190;965113;-63
2022/11/20 11:20:22;;;;;;;52.22;28.77;;;;;;;;;;734177;190;919452;-60
2022/11/20 11:22:47;;;;;;;46.03;23.57;;;;;;;;;;730323;190;920683;-60
2022/11/20 11:25:21;;;;;;;43.37;25.17;;;;;;;;;;730260;190;930438;-63
2022/11/20 11:27:47;;;;;;;46.87;25.70;;;;;;;;;;737056;190;920687;-61
2022/11/20 11:30:14;;;;;;;43.90;27.33;;;;;;;;;;730175;190;917458;-64
2022/11/20 11:32:42;;;;;;;50.57;25.63;;;;;;;;;;734084;190;915648;-60
2022/11/20 11:35:12;;;;;;;46.00;26.60;;;;;;;;;;737208;188;916480;-61
2022/11/20 11:37:38;;;;;;;46.30;24.80;;;;;;;;;;738715;190;817443;-61
2022/11/20 11:40:04;;;;;;;48.13;26.37;;;;;;;;;;735990;190;916429;-61
2022/11/20 11:42:30;;;;;;;47.08;26.08;;;;;;;;;;736265;190;916646;-60
2022/11/20 11:47:29;;;;;;;46.20;28.03;;;;;;;;;;739116;186;938508;-60
2022/11/20 11:50:01;;;;;;;51.40;28.00;;;;;;;;;;733804;190;921218;-61
2022/11/20 11:52:28;;;;;;;44.87;24.37;;;;;;;;;;730712;191;922329;-61
2022/11/20 11:54:54;;;;;;;44.20;26.40;;;;;;;;;;733472;189;914157;-64
2022/11/20 11:57:38;;;;;;;45.10;24.37;;;;;;;;;;736592;190;920541;-63
2022/11/20 12:00:05;;;;;;;49.43;28.10;;;;;;;;;;725281;193;918724;-65
2022/11/20 12:02:33;;;;;;;47.17;26.27;;;;;;;;;;732878;190;918986;-60
2022/11/20 12:04:59;;;;;;;50.40;26.73;;;;;;;;;;731804;190;820947;-60
2022/11/20 12:07:43;;;;;;;51.37;28.33;;;;;;;;;;738479;190;943153;-60
2022/11/20 12:10:20;;;;;;;45.00;25.80;;;;;;;;;;743154;188;819752;-63
2022/11/20 12:12:46;;;;;;;52.20;26.87;;;;;;;;;;730182;190;919510;-62
2022/11/20 12:15:12;;;;;;;45.55;24.25;;;;;;;;;;734739;187;920191;-62
2022/11/20 12:17:38;;;;;;;46.87;27.13;;;;;;;;;;731787;188;920990;-61
2022/11/20 12:20:19;;;;;;;53.23;28.93;;;;;;;;;;737224;190;919273;-63
2022/11/20 12:22:46;;;;;;;47.40;27.93;;;;;;;;;;740430;190;918684;-65
2022/11/20 12:25:11;;;;;;;49.63;27.07;;;;;;;;;;736607;187;819171;-62
2022/11/20 12:27:43;;;;;;;44.10;24.93;;;;;;;;;;728818;188;919430;-62
2022/11/20 12:30:11;;;;;;;45.93;27.00;;;;;;;;;;728572;191;921231;-61
2022/11/20 12:32:44;;;;;;;51.60;29.90;;;;;;;;;;738737;190;816203;-60
2022/11/20 12:35:11;;;;;;;47.43;27.13;;;;;;;;;;733067;188;917098;-60
2022/11/20 12:37:50;;;;;;;55.63;29.97;;;;;;;;;;731131;190;919171;-59
2022/11/20 12:40:19;;;;;;;58.77;29.53;;;;;;;;;;731539;188;919018;-62
2022/11/20 12:45:32;;;;;;;50.80;28.90;;;;;;;;;;734025;190;918817;-61
2022/11/20 12:48:03;;;;;;;51.37;29.67;;;;;;;;;;742197;189;918217;-62
2022/11/20 12:50:36;;;;;;;53.63;30.80;;;;;;;;;;734953;189;917347;-59
2022/11/20 12:53:08;;;;;;;48.30;27.70;;;;;;;;;;734936;190;923888;-62
2022/11/20 12:55:34;;;;;;;49.35;29.00;;;;;;;;;;733394;189;918055;-60
2022/11/20 12:58:02;;;;;;;47.50;27.00;;;;;;;;;;730951;190;919570;-60
2022/11/20 13:00:28;;;;;;;48.22;27.25;;;;;;;;;;734420;190;981756;-62
2022/11/20 13:02:56;;;;;;;46.67;25.90;;;;;;;;;;734184;190;853451;-63
2022/11/20 13:05:24;;;;;;;45.43;28.90;;;;;;;;;;731879;190;894690;-61
2022/11/20 13:07:50;;;;;;;57.27;27.33;;;;;;;;;;740555;190;917548;-62
2022/11/20 13:10:27;;;;;;;52.83;30.63;;;;;;;;;;734666;190;924059;-60
2022/11/20 13:12:53;;;;;;;51.77;29.00;;;;;;;;;;737053;190;816874;-61
2022/11/20 13:15:33;;;;;;;58.30;28.67;;;;;;;;;;733055;191;921272;-60
2022/11/20 13:18:00;;;;;;;49.57;29.10;;;;;;;;;;726691;190;818498;-62
2022/11/20 13:20:25;;;;;;;54.87;29.33;;;;;;;;;;738338;190;918991;-60
2022/11/20 13:22:54;;;;;;;48.30;27.77;;;;;;;;;;732675;190;814035;-61
2022/11/20 13:25:25;;;;;;;62.10;32.50;;;;;;;;;;732620;190;818560;-60
2022/11/20 13:27:50;;;;;;;53.70;29.17;;;;;;;;;;731819;190;816157;-63
2022/11/20 13:30:17;;;;;;;50.73;29.20;;;;;;;;;;735704;190;918977;-61
2022/11/20 13:32:48;;;;;;;63.27;33.87;;;;;;;;;;732402;190;919619;-63
2022/11/20 13:35:14;;;;;;;70.57;38.77;;;;;;;;;;730569;191;919524;-61
2022/11/20 13:37:40;;;;;;;67.57;36.27;;;;;;;;;;729719;190;924170;-63
2022/11/20 13:40:18;;;;;;;60.17;32.17;;;;;;;;;;735429;190;912461;-60
2022/11/20 13:42:44;;;;;;;58.40;31.10;;;;;;;;;;734453;190;918666;-63
2022/11/20 13:45:11;;;;;;;50.67;28.17;;;;;;;;;;732261;190;918692;-62
2022/11/20 13:47:37;;;;;;;58.70;32.30;;;;;;;;;;730336;190;921475;-63
2022/11/20 13:50:03;;;;;;;67.73;33.80;;;;;;;;;;736757;190;920112;-62
2022/11/20 13:52:42;;;;;;;57.50;31.50;;;;;;;;;;734021;190;929815;-64
2022/11/20 13:55:11;;;;;;;68.67;36.20;;;;;;;;;;732968;189;921776;-63
2022/11/20 13:57:43;;;;;;;78.43;38.40;;;;;;;;;;733057;190;838635;-63
2022/11/20 14:00:10;;;;;;;64.57;36.10;;;;;;;;;;732205;189;920947;-63
2022/11/20 14:02:36;;;;;;;79.27;40.77;;;;;;;;;;733266;190;819336;-61
2022/11/20 14:05:02;;;;;;;66.37;35.67;;;;;;;;;;732956;188;916425;-61
2022/11/20 14:07:27;;;;;;;63.38;36.08;;;;;;;;;;730079;190;817903;-62
2022/11/20 14:09:53;;;;;;;79.73;40.73;;;;;;;;;;738153;190;815984;-64
2022/11/20 14:12:19;;;;;;;82.27;42.33;;;;;;;;;;731233;190;919294;-61
2022/11/20 14:14:47;;;;;;;65.97;35.07;;;;;;;;;;731006;191;918778;-61
2022/11/20 14:17:20;;;;;;;62.03;36.53;;;;;;;;;;739679;190;869980;-61